sensor_id;sensor_type;location;lat;lon;timestamp;P1;durP1;ratioP1;P2;durP2;ratioP2
53927;SDS011;39837;47.630;18.822;2023-12-20T00:00:54;76.85;;;38.97;;
53927;SDS011;39837;47.630;18.822;2023-12-20T00:03:38;76.90;;;40.78;;
53927;SDS011;39837;47.630;18.822;2023-12-20T00:06:22;68.85;;;38.17;;
53927;SDS011;39837;47.630;18.822;2023-12-20T00:09:06;84.32;;;40.28;;
53927;SDS011;39837;47.630;18.822;2023-12-20T00:11:50;72.43;;;38.53;;
53927;SDS011;39837;47.630;18.822;2023-12-20T00:14:34;76.95;;;39.53;;
53927;SDS011;39837;47.630;18.822;2023-12-20T00:17:18;70.80;;;39.80;;
53927;SDS011;39837;47.630;18.822;2023-12-20T00:20:02;71.35;;;38.20;;
53927;SDS011;39837;47.630;18.822;2023-12-20T00:22:47;71.72;;;35.80;;
53927;SDS011;39837;47.630;18.822;2023-12-20T00:25:31;64.22;;;35.30;;
53927;SDS011;39837;47.630;18.822;2023-12-20T00:28:15;60.63;;;32.80;;
53927;SDS011;39837;47.630;18.822;2023-12-20T00:30:59;84.03;;;33.78;;
53927;SDS011;39837;47.630;18.822;2023-12-20T00:33:43;76.25;;;35.15;;
53927;SDS011;39837;47.630;18.822;2023-12-20T00:36:27;71.22;;;35.38;;
53927;SDS011;39837;47.630;18.822;2023-12-20T00:39:11;66.63;;;34.80;;
53927;SDS011;39837;47.630;18.822;2023-12-20T00:41:55;56.97;;;33.40;;
53927;SDS011;39837;47.630;18.822;2023-12-20T00:44:39;70.72;;;36.08;;
53927;SDS011;39837;47.630;18.822;2023-12-20T00:47:22;67.40;;;35.03;;
53927;SDS011;39837;47.630;18.822;2023-12-20T00:50:07;64.32;;;33.58;;
53927;SDS011;39837;47.630;18.822;2023-12-20T00:52:51;64.80;;;34.38;;
53927;SDS011;39837;47.630;18.822;2023-12-20T00:55:35;61.05;;;32.15;;
53927;SDS011;39837;47.630;18.822;2023-12-20T00:58:19;66.50;;;33.92;;
53927;SDS011;39837;47.630;18.822;2023-12-20T01:01:03;61.22;;;33.42;;
53927;SDS011;39837;47.630;18.822;2023-12-20T01:03:47;73.07;;;35.58;;
53927;SDS011;39837;47.630;18.822;2023-12-20T01:06:32;57.00;;;31.48;;
53927;SDS011;39837;47.630;18.822;2023-12-20T01:09:16;61.83;;;31.63;;
53927;SDS011;39837;47.630;18.822;2023-12-20T01:12:00;63.38;;;34.15;;
53927;SDS011;39837;47.630;18.822;2023-12-20T01:14:43;69.88;;;33.17;;
53927;SDS011;39837;47.630;18.822;2023-12-20T01:17:27;98.78;;;34.53;;
53927;SDS011;39837;47.630;18.822;2023-12-20T01:20:11;79.95;;;32.08;;
53927;SDS011;39837;47.630;18.822;2023-12-20T01:22:55;108.43;;;32.83;;
53927;SDS011;39837;47.630;18.822;2023-12-20T01:25:39;57.45;;;32.80;;
53927;SDS011;39837;47.630;18.822;2023-12-20T01:28:23;61.70;;;32.10;;
53927;SDS011;39837;47.630;18.822;2023-12-20T01:31:08;64.50;;;32.47;;
53927;SDS011;39837;47.630;18.822;2023-12-20T01:33:52;61.58;;;34.28;;
53927;SDS011;39837;47.630;18.822;2023-12-20T01:36:36;62.47;;;34.55;;
53927;SDS011;39837;47.630;18.822;2023-12-20T01:39:20;81.80;;;32.97;;
53927;SDS011;39837;47.630;18.822;2023-12-20T01:42:04;63.75;;;32.38;;
53927;SDS011;39837;47.630;18.822;2023-12-20T01:44:48;67.78;;;32.15;;
53927;SDS011;39837;47.630;18.822;2023-12-20T01:47:32;102.80;;;31.73;;
53927;SDS011;39837;47.630;18.822;2023-12-20T01:50:17;77.13;;;31.27;;
53927;SDS011;39837;47.630;18.822;2023-12-20T01:53:00;77.15;;;32.40;;
53927;SDS011;39837;47.630;18.822;2023-12-20T01:55:45;96.40;;;34.75;;
53927;SDS011;39837;47.630;18.822;2023-12-20T01:58:30;125.10;;;33.50;;
53927;SDS011;39837;47.630;18.822;2023-12-20T02:01:14;68.25;;;36.05;;
53927;SDS011;39837;47.630;18.822;2023-12-20T02:03:59;66.93;;;34.95;;
53927;SDS011;39837;47.630;18.822;2023-12-20T02:06:44;71.57;;;32.67;;
53927;SDS011;39837;47.630;18.822;2023-12-20T02:09:29;63.40;;;34.67;;
53927;SDS011;39837;47.630;18.822;2023-12-20T02:12:13;67.50;;;33.72;;
53927;SDS011;39837;47.630;18.822;2023-12-20T02:14:57;69.00;;;34.67;;
53927;SDS011;39837;47.630;18.822;2023-12-20T02:17:41;86.75;;;33.67;;
53927;SDS011;39837;47.630;18.822;2023-12-20T02:20:25;64.95;;;31.73;;
53927;SDS011;39837;47.630;18.822;2023-12-20T02:23:09;76.60;;;34.47;;
53927;SDS011;39837;47.630;18.822;2023-12-20T02:25:53;72.95;;;33.92;;
53927;SDS011;39837;47.630;18.822;2023-12-20T02:28:37;62.72;;;32.38;;
53927;SDS011;39837;47.630;18.822;2023-12-20T02:31:22;70.25;;;34.58;;
53927;SDS011;39837;47.630;18.822;2023-12-20T02:34:07;61.00;;;32.28;;
53927;SDS011;39837;47.630;18.822;2023-12-20T02:36:51;75.07;;;35.05;;
53927;SDS011;39837;47.630;18.822;2023-12-20T02:39:35;72.78;;;35.97;;
53927;SDS011;39837;47.630;18.822;2023-12-20T02:42:19;75.75;;;35.45;;
53927;SDS011;39837;47.630;18.822;2023-12-20T02:45:03;72.25;;;34.80;;
53927;SDS011;39837;47.630;18.822;2023-12-20T02:47:51;66.20;;;34.20;;
53927;SDS011;39837;47.630;18.822;2023-12-20T02:50:35;61.00;;;33.42;;
53927;SDS011;39837;47.630;18.822;2023-12-20T02:53:20;81.75;;;32.58;;
53927;SDS011;39837;47.630;18.822;2023-12-20T02:56:04;68.53;;;32.85;;
53927;SDS011;39837;47.630;18.822;2023-12-20T02:58:49;65.38;;;32.08;;
53927;SDS011;39837;47.630;18.822;2023-12-20T03:01:34;113.93;;;35.28;;
53927;SDS011;39837;47.630;18.822;2023-12-20T03:04:18;83.15;;;34.40;;
53927;SDS011;39837;47.630;18.822;2023-12-20T03:07:02;90.00;;;35.78;;
53927;SDS011;39837;47.630;18.822;2023-12-20T03:09:46;91.00;;;35.67;;
53927;SDS011;39837;47.630;18.822;2023-12-20T03:12:30;78.93;;;35.40;;
53927;SDS011;39837;47.630;18.822;2023-12-20T03:15:14;94.40;;;36.58;;
53927;SDS011;39837;47.630;18.822;2023-12-20T03:17:58;96.35;;;37.95;;
53927;SDS011;39837;47.630;18.822;2023-12-20T03:20:43;76.07;;;36.17;;
53927;SDS011;39837;47.630;18.822;2023-12-20T03:23:27;74.63;;;37.20;;
53927;SDS011;39837;47.630;18.822;2023-12-20T03:26:11;76.57;;;32.85;;
53927;SDS011;39837;47.630;18.822;2023-12-20T03:28:55;66.35;;;32.13;;
53927;SDS011;39837;47.630;18.822;2023-12-20T03:31:39;66.40;;;32.00;;
53927;SDS011;39837;47.630;18.822;2023-12-20T03:34:23;60.25;;;31.08;;
53927;SDS011;39837;47.630;18.822;2023-12-20T03:37:07;87.10;;;35.15;;
53927;SDS011;39837;47.630;18.822;2023-12-20T03:39:51;61.63;;;30.52;;
53927;SDS011;39837;47.630;18.822;2023-12-20T03:42:35;66.75;;;30.52;;
53927;SDS011;39837;47.630;18.822;2023-12-20T03:45:19;72.30;;;32.28;;
53927;SDS011;39837;47.630;18.822;2023-12-20T03:48:03;70.78;;;34.28;;
53927;SDS011;39837;47.630;18.822;2023-12-20T03:50:50;62.47;;;33.40;;
53927;SDS011;39837;47.630;18.822;2023-12-20T03:53:34;67.00;;;31.95;;
53927;SDS011;39837;47.630;18.822;2023-12-20T03:56:18;61.13;;;29.38;;
53927;SDS011;39837;47.630;18.822;2023-12-20T03:59:02;79.05;;;34.33;;
53927;SDS011;39837;47.630;18.822;2023-12-20T04:01:46;115.22;;;36.42;;
53927;SDS011;39837;47.630;18.822;2023-12-20T04:04:30;98.38;;;36.38;;
53927;SDS011;39837;47.630;18.822;2023-12-20T04:07:14;62.47;;;32.70;;
53927;SDS011;39837;47.630;18.822;2023-12-20T04:09:58;60.50;;;32.75;;
53927;SDS011;39837;47.630;18.822;2023-12-20T04:12:42;62.40;;;32.65;;
53927;SDS011;39837;47.630;18.822;2023-12-20T04:15:26;58.03;;;32.70;;
53927;SDS011;39837;47.630;18.822;2023-12-20T04:18:10;65.13;;;32.63;;
53927;SDS011;39837;47.630;18.822;2023-12-20T04:20:54;67.53;;;33.38;;
53927;SDS011;39837;47.630;18.822;2023-12-20T04:23:38;63.45;;;32.67;;
53927;SDS011;39837;47.630;18.822;2023-12-20T04:26:22;68.40;;;34.28;;
53927;SDS011;39837;47.630;18.822;2023-12-20T04:29:06;61.55;;;31.80;;
53927;SDS011;39837;47.630;18.822;2023-12-20T04:31:50;64.93;;;31.67;;
53927;SDS011;39837;47.630;18.822;2023-12-20T04:34:35;61.47;;;33.05;;
53927;SDS011;39837;47.630;18.822;2023-12-20T04:37:20;58.75;;;32.22;;
53927;SDS011;39837;47.630;18.822;2023-12-20T04:40:04;65.28;;;35.03;;
53927;SDS011;39837;47.630;18.822;2023-12-20T04:42:49;63.50;;;35.63;;
53927;SDS011;39837;47.630;18.822;2023-12-20T04:45:33;67.93;;;34.55;;
53927;SDS011;39837;47.630;18.822;2023-12-20T04:48:17;59.90;;;31.55;;
53927;SDS011;39837;47.630;18.822;2023-12-20T04:51:01;57.42;;;30.77;;
53927;SDS011;39837;47.630;18.822;2023-12-20T04:53:45;61.88;;;32.00;;
53927;SDS011;39837;47.630;18.822;2023-12-20T04:56:29;55.60;;;29.88;;
53927;SDS011;39837;47.630;18.822;2023-12-20T04:59:13;57.58;;;30.20;;
53927;SDS011;39837;47.630;18.822;2023-12-20T05:01:57;54.58;;;30.88;;
53927;SDS011;39837;47.630;18.822;2023-12-20T05:04:42;52.63;;;28.77;;
53927;SDS011;39837;47.630;18.822;2023-12-20T05:07:25;57.83;;;30.65;;
53927;SDS011;39837;47.630;18.822;2023-12-20T05:10:09;51.22;;;26.77;;
53927;SDS011;39837;47.630;18.822;2023-12-20T05:12:53;43.92;;;25.65;;
53927;SDS011;39837;47.630;18.822;2023-12-20T05:15:37;50.08;;;26.90;;
53927;SDS011;39837;47.630;18.822;2023-12-20T05:18:21;49.10;;;26.65;;
53927;SDS011;39837;47.630;18.822;2023-12-20T05:21:06;44.75;;;26.45;;
53927;SDS011;39837;47.630;18.822;2023-12-20T05:23:50;47.97;;;27.85;;
53927;SDS011;39837;47.630;18.822;2023-12-20T05:26:34;47.08;;;27.73;;
53927;SDS011;39837;47.630;18.822;2023-12-20T05:29:18;54.90;;;29.10;;
53927;SDS011;39837;47.630;18.822;2023-12-20T05:32:02;49.88;;;27.70;;
53927;SDS011;39837;47.630;18.822;2023-12-20T05:34:51;52.50;;;29.00;;
53927;SDS011;39837;47.630;18.822;2023-12-20T05:37:35;49.63;;;29.05;;
53927;SDS011;39837;47.630;18.822;2023-12-20T05:40:19;51.30;;;29.00;;
53927;SDS011;39837;47.630;18.822;2023-12-20T05:43:03;48.00;;;28.33;;
53927;SDS011;39837;47.630;18.822;2023-12-20T05:45:47;49.67;;;29.67;;
53927;SDS011;39837;47.630;18.822;2023-12-20T05:48:31;56.17;;;31.05;;
53927;SDS011;39837;47.630;18.822;2023-12-20T05:51:15;69.18;;;38.70;;
53927;SDS011;39837;47.630;18.822;2023-12-20T05:53:59;61.53;;;33.38;;
53927;SDS011;39837;47.630;18.822;2023-12-20T05:56:43;59.53;;;34.63;;
53927;SDS011;39837;47.630;18.822;2023-12-20T05:59:27;68.32;;;34.90;;
53927;SDS011;39837;47.630;18.822;2023-12-20T06:02:11;56.08;;;32.15;;
53927;SDS011;39837;47.630;18.822;2023-12-20T06:04:55;53.50;;;30.67;;
53927;SDS011;39837;47.630;18.822;2023-12-20T06:07:39;55.75;;;32.63;;
53927;SDS011;39837;47.630;18.822;2023-12-20T06:10:23;60.63;;;34.10;;
53927;SDS011;39837;47.630;18.822;2023-12-20T06:13:07;54.58;;;31.67;;
53927;SDS011;39837;47.630;18.822;2023-12-20T06:15:53;59.25;;;33.42;;
53927;SDS011;39837;47.630;18.822;2023-12-20T06:18:38;66.20;;;32.35;;
53927;SDS011;39837;47.630;18.822;2023-12-20T06:21:22;64.10;;;34.17;;
53927;SDS011;39837;47.630;18.822;2023-12-20T06:24:06;73.10;;;40.25;;
53927;SDS011;39837;47.630;18.822;2023-12-20T06:26:50;125.72;;;47.92;;
53927;SDS011;39837;47.630;18.822;2023-12-20T06:29:34;119.15;;;51.10;;
53927;SDS011;39837;47.630;18.822;2023-12-20T06:32:18;103.07;;;47.50;;
53927;SDS011;39837;47.630;18.822;2023-12-20T06:35:02;112.80;;;50.50;;
53927;SDS011;39837;47.630;18.822;2023-12-20T06:40:32;82.43;;;42.13;;
53927;SDS011;39837;47.630;18.822;2023-12-20T06:43:16;102.18;;;41.75;;
53927;SDS011;39837;47.630;18.822;2023-12-20T06:46:00;139.85;;;51.75;;
53927;SDS011;39837;47.630;18.822;2023-12-20T06:48:44;117.07;;;41.75;;
53927;SDS011;39837;47.630;18.822;2023-12-20T06:51:28;141.15;;;46.03;;
53927;SDS011;39837;47.630;18.822;2023-12-20T06:54:12;356.20;;;55.65;;
53927;SDS011;39837;47.630;18.822;2023-12-20T06:56:55;94.20;;;42.30;;
53927;SDS011;39837;47.630;18.822;2023-12-20T06:59:40;95.75;;;40.80;;
53927;SDS011;39837;47.630;18.822;2023-12-20T07:02:24;143.90;;;45.15;;
53927;SDS011;39837;47.630;18.822;2023-12-20T07:05:08;194.18;;;45.85;;
53927;SDS011;39837;47.630;18.822;2023-12-20T07:07:52;212.15;;;43.95;;
53927;SDS011;39837;47.630;18.822;2023-12-20T07:10:36;258.83;;;45.17;;
53927;SDS011;39837;47.630;18.822;2023-12-20T07:13:20;241.18;;;47.90;;
53927;SDS011;39837;47.630;18.822;2023-12-20T07:16:06;253.60;;;46.17;;
53927;SDS011;39837;47.630;18.822;2023-12-20T07:18:49;288.05;;;48.83;;
53927;SDS011;39837;47.630;18.822;2023-12-20T07:21:34;185.00;;;46.03;;
53927;SDS011;39837;47.630;18.822;2023-12-20T07:24:17;254.55;;;52.58;;
53927;SDS011;39837;47.630;18.822;2023-12-20T07:27:03;157.95;;;51.33;;
53927;SDS011;39837;47.630;18.822;2023-12-20T07:29:47;288.23;;;62.60;;
53927;SDS011;39837;47.630;18.822;2023-12-20T07:32:32;196.73;;;53.15;;
53927;SDS011;39837;47.630;18.822;2023-12-20T07:35:16;186.05;;;58.92;;
53927;SDS011;39837;47.630;18.822;2023-12-20T07:38:00;169.95;;;57.35;;
53927;SDS011;39837;47.630;18.822;2023-12-20T07:40:45;235.15;;;65.53;;
53927;SDS011;39837;47.630;18.822;2023-12-20T07:43:29;227.63;;;79.35;;
53927;SDS011;39837;47.630;18.822;2023-12-20T07:46:13;102.70;;;47.25;;
53927;SDS011;39837;47.630;18.822;2023-12-20T07:48:56;114.85;;;47.50;;
53927;SDS011;39837;47.630;18.822;2023-12-20T07:51:40;109.97;;;45.08;;
53927;SDS011;39837;47.630;18.822;2023-12-20T07:54:24;81.97;;;40.15;;
53927;SDS011;39837;47.630;18.822;2023-12-20T07:57:09;63.72;;;36.13;;
53927;SDS011;39837;47.630;18.822;2023-12-20T07:59:54;71.95;;;39.38;;
53927;SDS011;39837;47.630;18.822;2023-12-20T08:02:38;68.15;;;36.92;;
53927;SDS011;39837;47.630;18.822;2023-12-20T08:05:22;64.40;;;35.97;;
53927;SDS011;39837;47.630;18.822;2023-12-20T08:08:06;75.28;;;41.80;;
53927;SDS011;39837;47.630;18.822;2023-12-20T08:10:50;73.03;;;38.92;;
53927;SDS011;39837;47.630;18.822;2023-12-20T08:13:34;88.65;;;46.03;;
53927;SDS011;39837;47.630;18.822;2023-12-20T08:16:21;136.90;;;61.42;;
53927;SDS011;39837;47.630;18.822;2023-12-20T08:19:05;117.70;;;55.15;;
53927;SDS011;39837;47.630;18.822;2023-12-20T08:21:49;152.77;;;56.65;;
53927;SDS011;39837;47.630;18.822;2023-12-20T08:24:33;143.10;;;53.92;;
53927;SDS011;39837;47.630;18.822;2023-12-20T08:27:17;135.40;;;50.15;;
53927;SDS011;39837;47.630;18.822;2023-12-20T08:30:01;116.65;;;49.88;;
53927;SDS011;39837;47.630;18.822;2023-12-20T08:32:45;197.63;;;53.90;;
53927;SDS011;39837;47.630;18.822;2023-12-20T08:35:29;98.38;;;44.95;;
53927;SDS011;39837;47.630;18.822;2023-12-20T08:38:13;96.70;;;41.55;;
53927;SDS011;39837;47.630;18.822;2023-12-20T08:40:58;100.53;;;44.25;;
53927;SDS011;39837;47.630;18.822;2023-12-20T08:43:41;82.43;;;41.67;;
53927;SDS011;39837;47.630;18.822;2023-12-20T08:46:25;80.63;;;40.80;;
53927;SDS011;39837;47.630;18.822;2023-12-20T08:49:09;72.55;;;38.20;;
53927;SDS011;39837;47.630;18.822;2023-12-20T08:51:53;70.63;;;39.33;;
53927;SDS011;39837;47.630;18.822;2023-12-20T08:54:37;73.10;;;39.80;;
53927;SDS011;39837;47.630;18.822;2023-12-20T08:57:21;80.78;;;42.25;;
53927;SDS011;39837;47.630;18.822;2023-12-20T09:00:07;117.80;;;48.85;;
53927;SDS011;39837;47.630;18.822;2023-12-20T09:02:51;89.90;;;47.90;;
53927;SDS011;39837;47.630;18.822;2023-12-20T09:05:35;105.63;;;45.22;;
53927;SDS011;39837;47.630;18.822;2023-12-20T09:08:19;91.43;;;46.55;;
53927;SDS011;39837;47.630;18.822;2023-12-20T09:11:03;86.93;;;43.88;;
53927;SDS011;39837;47.630;18.822;2023-12-20T09:13:47;77.57;;;40.15;;
53927;SDS011;39837;47.630;18.822;2023-12-20T09:16:32;80.28;;;41.15;;
53927;SDS011;39837;47.630;18.822;2023-12-20T09:19:17;77.43;;;39.22;;
53927;SDS011;39837;47.630;18.822;2023-12-20T09:22:01;85.13;;;48.08;;
53927;SDS011;39837;47.630;18.822;2023-12-20T09:24:45;76.75;;;41.80;;
53927;SDS011;39837;47.630;18.822;2023-12-20T09:27:29;71.90;;;39.63;;
53927;SDS011;39837;47.630;18.822;2023-12-20T09:30:13;75.85;;;41.17;;
53927;SDS011;39837;47.630;18.822;2023-12-20T09:32:57;76.20;;;40.53;;
53927;SDS011;39837;47.630;18.822;2023-12-20T09:35:41;77.45;;;43.72;;
53927;SDS011;39837;47.630;18.822;2023-12-20T09:38:26;79.05;;;43.13;;
53927;SDS011;39837;47.630;18.822;2023-12-20T09:41:10;85.47;;;42.05;;
53927;SDS011;39837;47.630;18.822;2023-12-20T09:43:54;87.97;;;39.47;;
53927;SDS011;39837;47.630;18.822;2023-12-20T09:46:42;85.65;;;44.92;;
53927;SDS011;39837;47.630;18.822;2023-12-20T09:49:27;85.90;;;47.10;;
53927;SDS011;39837;47.630;18.822;2023-12-20T09:52:12;79.07;;;41.80;;
53927;SDS011;39837;47.630;18.822;2023-12-20T09:54:56;69.40;;;40.67;;
53927;SDS011;39837;47.630;18.822;2023-12-20T09:57:40;83.82;;;42.25;;
53927;SDS011;39837;47.630;18.822;2023-12-20T10:00:24;77.43;;;39.53;;
53927;SDS011;39837;47.630;18.822;2023-12-20T10:03:08;68.03;;;39.97;;
53927;SDS011;39837;47.630;18.822;2023-12-20T10:05:56;64.40;;;37.50;;
53927;SDS011;39837;47.630;18.822;2023-12-20T10:08:44;66.93;;;39.22;;
53927;SDS011;39837;47.630;18.822;2023-12-20T10:11:28;69.53;;;39.92;;
53927;SDS011;39837;47.630;18.822;2023-12-20T10:14:12;64.55;;;35.70;;
53927;SDS011;39837;47.630;18.822;2023-12-20T10:17:03;63.08;;;36.00;;
53927;SDS011;39837;47.630;18.822;2023-12-20T10:19:47;67.45;;;37.47;;
53927;SDS011;39837;47.630;18.822;2023-12-20T10:22:32;66.10;;;38.30;;
53927;SDS011;39837;47.630;18.822;2023-12-20T10:25:16;89.50;;;54.85;;
53927;SDS011;39837;47.630;18.822;2023-12-20T10:28:14;69.90;;;40.90;;
53927;SDS011;39837;47.630;18.822;2023-12-20T10:31:04;67.10;;;40.13;;
53927;SDS011;39837;47.630;18.822;2023-12-20T10:33:48;73.53;;;40.70;;
53927;SDS011;39837;47.630;18.822;2023-12-20T10:36:33;80.20;;;43.65;;
53927;SDS011;39837;47.630;18.822;2023-12-20T10:39:19;73.75;;;43.65;;
53927;SDS011;39837;47.630;18.822;2023-12-20T10:42:04;77.50;;;42.53;;
53927;SDS011;39837;47.630;18.822;2023-12-20T10:44:48;75.88;;;42.78;;
53927;SDS011;39837;47.630;18.822;2023-12-20T10:47:34;72.95;;;42.75;;
53927;SDS011;39837;47.630;18.822;2023-12-20T10:50:19;75.00;;;44.15;;
53927;SDS011;39837;47.630;18.822;2023-12-20T10:53:04;73.05;;;42.67;;
53927;SDS011;39837;47.630;18.822;2023-12-20T10:55:48;82.57;;;44.20;;
53927;SDS011;39837;47.630;18.822;2023-12-20T10:58:34;80.45;;;44.15;;
53927;SDS011;39837;47.630;18.822;2023-12-20T11:01:20;72.93;;;40.72;;
53927;SDS011;39837;47.630;18.822;2023-12-20T11:04:06;84.00;;;43.70;;
53927;SDS011;39837;47.630;18.822;2023-12-20T11:10:19;73.70;;;41.53;;
53927;SDS011;39837;47.630;18.822;2023-12-20T11:15:53;72.63;;;42.03;;
53927;SDS011;39837;47.630;18.822;2023-12-20T11:18:37;86.22;;;44.40;;
53927;SDS011;39837;47.630;18.822;2023-12-20T11:21:24;79.70;;;42.05;;
53927;SDS011;39837;47.630;18.822;2023-12-20T11:24:09;74.85;;;44.92;;
53927;SDS011;39837;47.630;18.822;2023-12-20T11:26:55;92.45;;;46.17;;
53927;SDS011;39837;47.630;18.822;2023-12-20T11:37:57;73.18;;;41.97;;
53927;SDS011;39837;47.630;18.822;2023-12-20T11:40:41;76.18;;;45.63;;
53927;SDS011;39837;47.630;18.822;2023-12-20T11:43:45;85.60;;;45.25;;
53927;SDS011;39837;47.630;18.822;2023-12-20T11:46:29;91.78;;;46.45;;
53927;SDS011;39837;47.630;18.822;2023-12-20T11:49:13;78.15;;;42.58;;
53927;SDS011;39837;47.630;18.822;2023-12-20T11:51:57;122.97;;;43.08;;
53927;SDS011;39837;47.630;18.822;2023-12-20T11:54:41;77.38;;;41.60;;
53927;SDS011;39837;47.630;18.822;2023-12-20T11:57:25;86.05;;;46.83;;
53927;SDS011;39837;47.630;18.822;2023-12-20T12:00:09;79.90;;;41.75;;
53927;SDS011;39837;47.630;18.822;2023-12-20T12:02:57;80.00;;;43.30;;
53927;SDS011;39837;47.630;18.822;2023-12-20T12:05:42;80.40;;;45.72;;
53927;SDS011;39837;47.630;18.822;2023-12-20T12:08:26;83.93;;;45.63;;
53927;SDS011;39837;47.630;18.822;2023-12-20T12:11:10;121.68;;;64.15;;
53927;SDS011;39837;47.630;18.822;2023-12-20T12:13:54;140.25;;;73.40;;
53927;SDS011;39837;47.630;18.822;2023-12-20T12:16:38;99.05;;;58.13;;
53927;SDS011;39837;47.630;18.822;2023-12-20T12:19:22;104.82;;;64.25;;
53927;SDS011;39837;47.630;18.822;2023-12-20T12:22:08;100.28;;;52.35;;
53927;SDS011;39837;47.630;18.822;2023-12-20T12:24:58;83.63;;;46.38;;
53927;SDS011;39837;47.630;18.822;2023-12-20T12:27:44;88.53;;;43.95;;
53927;SDS011;39837;47.630;18.822;2023-12-20T12:30:28;86.05;;;43.60;;
53927;SDS011;39837;47.630;18.822;2023-12-20T12:33:12;84.13;;;43.85;;
53927;SDS011;39837;47.630;18.822;2023-12-20T12:35:56;89.18;;;45.80;;
53927;SDS011;39837;47.630;18.822;2023-12-20T12:38:41;91.30;;;46.47;;
53927;SDS011;39837;47.630;18.822;2023-12-20T12:41:25;91.35;;;48.78;;
53927;SDS011;39837;47.630;18.822;2023-12-20T12:44:09;91.30;;;46.95;;
53927;SDS011;39837;47.630;18.822;2023-12-20T12:46:53;84.43;;;46.90;;
53927;SDS011;39837;47.630;18.822;2023-12-20T12:49:37;79.82;;;42.35;;
53927;SDS011;39837;47.630;18.822;2023-12-20T12:52:23;79.10;;;39.70;;
53927;SDS011;39837;47.630;18.822;2023-12-20T12:55:10;79.88;;;41.90;;
53927;SDS011;39837;47.630;18.822;2023-12-20T12:57:54;82.05;;;43.92;;
53927;SDS011;39837;47.630;18.822;2023-12-20T13:00:38;86.65;;;44.97;;
53927;SDS011;39837;47.630;18.822;2023-12-20T13:03:22;97.45;;;48.83;;
53927;SDS011;39837;47.630;18.822;2023-12-20T13:06:06;79.38;;;42.47;;
53927;SDS011;39837;47.630;18.822;2023-12-20T13:11:36;78.93;;;40.92;;
53927;SDS011;39837;47.630;18.822;2023-12-20T13:14:20;72.75;;;39.15;;
53927;SDS011;39837;47.630;18.822;2023-12-20T13:17:04;61.15;;;33.17;;
53927;SDS011;39837;47.630;18.822;2023-12-20T13:19:51;48.75;;;28.98;;
53927;SDS011;39837;47.630;18.822;2023-12-20T13:22:35;54.63;;;29.85;;
53927;SDS011;39837;47.630;18.822;2023-12-20T13:25:19;46.42;;;27.77;;
53927;SDS011;39837;47.630;18.822;2023-12-20T13:28:03;53.38;;;30.02;;
53927;SDS011;39837;47.630;18.822;2023-12-20T13:30:48;49.55;;;28.75;;
53927;SDS011;39837;47.630;18.822;2023-12-20T13:33:32;50.55;;;30.77;;
53927;SDS011;39837;47.630;18.822;2023-12-20T13:36:16;49.97;;;29.98;;
53927;SDS011;39837;47.630;18.822;2023-12-20T13:39:00;51.67;;;31.15;;
53927;SDS011;39837;47.630;18.822;2023-12-20T13:41:46;49.60;;;30.02;;
53927;SDS011;39837;47.630;18.822;2023-12-20T13:44:31;59.15;;;34.72;;
53927;SDS011;39837;47.630;18.822;2023-12-20T13:47:15;63.28;;;37.03;;
53927;SDS011;39837;47.630;18.822;2023-12-20T13:49:59;55.90;;;33.92;;
53927;SDS011;39837;47.630;18.822;2023-12-20T13:52:47;61.55;;;35.30;;
53927;SDS011;39837;47.630;18.822;2023-12-20T13:55:31;54.05;;;32.17;;
53927;SDS011;39837;47.630;18.822;2023-12-20T13:58:15;61.25;;;34.75;;
53927;SDS011;39837;47.630;18.822;2023-12-20T14:00:59;55.13;;;32.45;;
53927;SDS011;39837;47.630;18.822;2023-12-20T14:03:44;58.75;;;35.15;;
53927;SDS011;39837;47.630;18.822;2023-12-20T14:06:31;59.08;;;33.47;;
53927;SDS011;39837;47.630;18.822;2023-12-20T14:09:16;57.97;;;33.90;;
53927;SDS011;39837;47.630;18.822;2023-12-20T14:12:01;60.78;;;34.45;;
53927;SDS011;39837;47.630;18.822;2023-12-20T14:14:45;67.90;;;39.10;;
53927;SDS011;39837;47.630;18.822;2023-12-20T14:17:29;55.55;;;33.60;;
53927;SDS011;39837;47.630;18.822;2023-12-20T14:20:13;59.40;;;36.38;;
53927;SDS011;39837;47.630;18.822;2023-12-20T14:22:56;58.92;;;35.03;;
53927;SDS011;39837;47.630;18.822;2023-12-20T14:25:41;76.32;;;51.72;;
53927;SDS011;39837;47.630;18.822;2023-12-20T14:28:25;58.80;;;35.85;;
53927;SDS011;39837;47.630;18.822;2023-12-20T14:31:09;81.55;;;50.30;;
53927;SDS011;39837;47.630;18.822;2023-12-20T14:33:53;80.45;;;45.75;;
53927;SDS011;39837;47.630;18.822;2023-12-20T14:36:38;80.85;;;46.75;;
53927;SDS011;39837;47.630;18.822;2023-12-20T14:39:22;104.00;;;56.03;;
53927;SDS011;39837;47.630;18.822;2023-12-20T14:42:09;83.72;;;49.33;;
53927;SDS011;39837;47.630;18.822;2023-12-20T14:44:57;66.97;;;40.42;;
53927;SDS011;39837;47.630;18.822;2023-12-20T14:47:41;66.53;;;37.83;;
53927;SDS011;39837;47.630;18.822;2023-12-20T14:50:25;55.92;;;35.05;;
53927;SDS011;39837;47.630;18.822;2023-12-20T14:53:09;59.38;;;34.40;;
53927;SDS011;39837;47.630;18.822;2023-12-20T14:55:53;58.22;;;34.92;;
53927;SDS011;39837;47.630;18.822;2023-12-20T14:58:37;59.22;;;34.95;;
53927;SDS011;39837;47.630;18.822;2023-12-20T15:01:21;56.47;;;33.55;;
53927;SDS011;39837;47.630;18.822;2023-12-20T15:04:06;56.60;;;34.63;;
53927;SDS011;39837;47.630;18.822;2023-12-20T15:06:51;61.90;;;32.70;;
53927;SDS011;39837;47.630;18.822;2023-12-20T15:09:35;60.33;;;35.97;;
53927;SDS011;39837;47.630;18.822;2023-12-20T15:12:19;57.55;;;33.72;;
53927;SDS011;39837;47.630;18.822;2023-12-20T15:15:03;68.18;;;36.65;;
53927;SDS011;39837;47.630;18.822;2023-12-20T15:17:48;66.38;;;35.63;;
53927;SDS011;39837;47.630;18.822;2023-12-20T15:20:32;59.83;;;35.45;;
53927;SDS011;39837;47.630;18.822;2023-12-20T15:23:17;58.53;;;33.47;;
53927;SDS011;39837;47.630;18.822;2023-12-20T15:26:02;52.90;;;35.15;;
53927;SDS011;39837;47.630;18.822;2023-12-20T15:28:46;69.88;;;40.13;;
53927;SDS011;39837;47.630;18.822;2023-12-20T15:31:30;82.32;;;42.72;;
53927;SDS011;39837;47.630;18.822;2023-12-20T15:34:16;65.57;;;37.08;;
53927;SDS011;39837;47.630;18.822;2023-12-20T15:37:00;194.80;;;126.63;;
53927;SDS011;39837;47.630;18.822;2023-12-20T15:39:44;86.38;;;49.83;;
53927;SDS011;39837;47.630;18.822;2023-12-20T15:42:28;151.23;;;98.28;;
53927;SDS011;39837;47.630;18.822;2023-12-20T15:45:14;58.95;;;35.47;;
53927;SDS011;39837;47.630;18.822;2023-12-20T15:47:58;59.53;;;32.20;;
53927;SDS011;39837;47.630;18.822;2023-12-20T15:50:42;48.35;;;31.27;;
53927;SDS011;39837;47.630;18.822;2023-12-20T15:53:27;48.38;;;29.95;;
53927;SDS011;39837;47.630;18.822;2023-12-20T15:56:11;44.58;;;29.27;;
53927;SDS011;39837;47.630;18.822;2023-12-20T15:58:56;48.33;;;28.80;;
53927;SDS011;39837;47.630;18.822;2023-12-20T16:01:41;53.83;;;30.63;;
53927;SDS011;39837;47.630;18.822;2023-12-20T16:04:25;49.80;;;30.58;;